sensor_id;sensor_type;location;lat;lon;timestamp;P1;durP1;ratioP1;P2;durP2;ratioP2
49578;SDS011;35483;50.828;3.228;2023-07-30T00:02:19;9.27;;;2.85;;
49578;SDS011;35483;50.828;3.228;2023-07-30T00:04:45;9.93;;;3.08;;
49578;SDS011;35483;50.828;3.228;2023-07-30T00:07:11;6.78;;;2.72;;
49578;SDS011;35483;50.828;3.228;2023-07-30T00:09:37;9.15;;;2.42;;
49578;SDS011;35483;50.828;3.228;2023-07-30T00:12:04;5.05;;;2.67;;
49578;SDS011;35483;50.828;3.228;2023-07-30T00:14:30;7.95;;;2.80;;
49578;SDS011;35483;50.828;3.228;2023-07-30T00:16:56;5.65;;;2.28;;
49578;SDS011;35483;50.828;3.228;2023-07-30T00:19:22;7.72;;;3.30;;
49578;SDS011;35483;50.828;3.228;2023-07-30T00:21:48;12.82;;;3.92;;
49578;SDS011;35483;50.828;3.228;2023-07-30T00:24:13;9.30;;;2.78;;
49578;SDS011;35483;50.828;3.228;2023-07-30T00:26:39;12.65;;;3.17;;
49578;SDS011;35483;50.828;3.228;2023-07-30T00:29:05;8.15;;;3.25;;
49578;SDS011;35483;50.828;3.228;2023-07-30T00:31:31;9.25;;;2.47;;
49578;SDS011;35483;50.828;3.228;2023-07-30T00:33:57;10.60;;;3.20;;
49578;SDS011;35483;50.828;3.228;2023-07-30T00:36:23;10.48;;;3.08;;
49578;SDS011;35483;50.828;3.228;2023-07-30T00:38:49;6.32;;;2.60;;
49578;SDS011;35483;50.828;3.228;2023-07-30T00:41:14;14.38;;;3.08;;
49578;SDS011;35483;50.828;3.228;2023-07-30T00:43:40;9.02;;;2.60;;
49578;SDS011;35483;50.828;3.228;2023-07-30T00:46:06;8.45;;;2.70;;
49578;SDS011;35483;50.828;3.228;2023-07-30T00:48:32;8.25;;;2.80;;
49578;SDS011;35483;50.828;3.228;2023-07-30T00:50:58;8.50;;;2.80;;
49578;SDS011;35483;50.828;3.228;2023-07-30T00:53:26;9.30;;;3.55;;
49578;SDS011;35483;50.828;3.228;2023-07-30T00:55:52;9.45;;;3.30;;
49578;SDS011;35483;50.828;3.228;2023-07-30T00:58:18;8.98;;;2.75;;
49578;SDS011;35483;50.828;3.228;2023-07-30T01:00:45;8.25;;;2.65;;
49578;SDS011;35483;50.828;3.228;2023-07-30T01:03:12;10.25;;;3.03;;
49578;SDS011;35483;50.828;3.228;2023-07-30T01:05:38;13.55;;;3.30;;
49578;SDS011;35483;50.828;3.228;2023-07-30T01:08:04;10.27;;;2.75;;
49578;SDS011;35483;50.828;3.228;2023-07-30T01:10:30;10.07;;;2.97;;
49578;SDS011;35483;50.828;3.228;2023-07-30T01:13:01;13.75;;;3.17;;
49578;SDS011;35483;50.828;3.228;2023-07-30T01:15:28;11.85;;;2.97;;
49578;SDS011;35483;50.828;3.228;2023-07-30T01:17:55;9.27;;;3.08;;
49578;SDS011;35483;50.828;3.228;2023-07-30T01:20:21;15.73;;;3.47;;
49578;SDS011;35483;50.828;3.228;2023-07-30T01:22:47;8.43;;;2.90;;
49578;SDS011;35483;50.828;3.228;2023-07-30T01:25:13;8.10;;;3.00;;
49578;SDS011;35483;50.828;3.228;2023-07-30T01:27:43;13.73;;;3.95;;
49578;SDS011;35483;50.828;3.228;2023-07-30T01:30:22;7.65;;;2.92;;
49578;SDS011;35483;50.828;3.228;2023-07-30T01:32:59;9.27;;;2.95;;
49578;SDS011;35483;50.828;3.228;2023-07-30T01:35:26;9.30;;;2.83;;
49578;SDS011;35483;50.828;3.228;2023-07-30T01:37:53;10.73;;;2.97;;
49578;SDS011;35483;50.828;3.228;2023-07-30T01:40:19;11.00;;;3.53;;
49578;SDS011;35483;50.828;3.228;2023-07-30T01:42:46;11.15;;;3.35;;
49578;SDS011;35483;50.828;3.228;2023-07-30T01:45:12;9.70;;;2.63;;
49578;SDS011;35483;50.828;3.228;2023-07-30T01:47:37;10.18;;;3.22;;
49578;SDS011;35483;50.828;3.228;2023-07-30T01:50:03;7.25;;;2.35;;
49578;SDS011;35483;50.828;3.228;2023-07-30T01:52:29;11.40;;;3.13;;
49578;SDS011;35483;50.828;3.228;2023-07-30T01:54:55;9.65;;;2.83;;
49578;SDS011;35483;50.828;3.228;2023-07-30T01:57:25;9.82;;;2.63;;
49578;SDS011;35483;50.828;3.228;2023-07-30T01:59:52;8.35;;;2.63;;
49578;SDS011;35483;50.828;3.228;2023-07-30T02:02:17;7.85;;;2.78;;
49578;SDS011;35483;50.828;3.228;2023-07-30T02:04:43;9.85;;;2.38;;
49578;SDS011;35483;50.828;3.228;2023-07-30T02:07:09;9.07;;;2.88;;
49578;SDS011;35483;50.828;3.228;2023-07-30T02:09:35;12.18;;;3.28;;
49578;SDS011;35483;50.828;3.228;2023-07-30T02:12:00;7.47;;;2.90;;
49578;SDS011;35483;50.828;3.228;2023-07-30T02:14:27;9.07;;;2.55;;
49578;SDS011;35483;50.828;3.228;2023-07-30T02:16:53;10.70;;;3.22;;
49578;SDS011;35483;50.828;3.228;2023-07-30T02:19:19;11.00;;;2.75;;
49578;SDS011;35483;50.828;3.228;2023-07-30T02:21:45;14.82;;;2.67;;
49578;SDS011;35483;50.828;3.228;2023-07-30T02:24:10;8.65;;;2.75;;
49578;SDS011;35483;50.828;3.228;2023-07-30T02:26:39;9.75;;;2.50;;
49578;SDS011;35483;50.828;3.228;2023-07-30T02:29:05;11.13;;;2.65;;
49578;SDS011;35483;50.828;3.228;2023-07-30T02:31:30;9.82;;;2.63;;
49578;SDS011;35483;50.828;3.228;2023-07-30T02:33:56;10.27;;;3.15;;
49578;SDS011;35483;50.828;3.228;2023-07-30T02:36:23;7.03;;;3.17;;
49578;SDS011;35483;50.828;3.228;2023-07-30T02:38:48;9.70;;;3.08;;
49578;SDS011;35483;50.828;3.228;2023-07-30T02:41:14;5.47;;;2.30;;
49578;SDS011;35483;50.828;3.228;2023-07-30T02:43:40;13.50;;;2.80;;
49578;SDS011;35483;50.828;3.228;2023-07-30T02:46:06;6.95;;;2.42;;
49578;SDS011;35483;50.828;3.228;2023-07-30T02:48:32;9.43;;;3.00;;
49578;SDS011;35483;50.828;3.228;2023-07-30T02:50:58;8.05;;;3.38;;
49578;SDS011;35483;50.828;3.228;2023-07-30T02:53:23;9.27;;;2.67;;
49578;SDS011;35483;50.828;3.228;2023-07-30T02:55:49;11.60;;;3.05;;
49578;SDS011;35483;50.828;3.228;2023-07-30T02:58:15;11.75;;;3.50;;
49578;SDS011;35483;50.828;3.228;2023-07-30T03:00:41;11.95;;;3.05;;
49578;SDS011;35483;50.828;3.228;2023-07-30T03:03:06;8.68;;;3.60;;
49578;SDS011;35483;50.828;3.228;2023-07-30T03:05:33;11.00;;;3.25;;
49578;SDS011;35483;50.828;3.228;2023-07-30T03:07:59;10.32;;;3.10;;
49578;SDS011;35483;50.828;3.228;2023-07-30T03:10:24;14.30;;;3.70;;
49578;SDS011;35483;50.828;3.228;2023-07-30T03:12:50;13.45;;;3.30;;
49578;SDS011;35483;50.828;3.228;2023-07-30T03:15:16;12.50;;;3.20;;
49578;SDS011;35483;50.828;3.228;2023-07-30T03:17:42;9.20;;;3.00;;
49578;SDS011;35483;50.828;3.228;2023-07-30T03:20:07;7.90;;;2.90;;
49578;SDS011;35483;50.828;3.228;2023-07-30T03:22:34;12.00;;;3.10;;
49578;SDS011;35483;50.828;3.228;2023-07-30T03:24:59;10.85;;;3.20;;
49578;SDS011;35483;50.828;3.228;2023-07-30T03:27:25;11.75;;;3.60;;
49578;SDS011;35483;50.828;3.228;2023-07-30T03:29:51;10.65;;;3.55;;
49578;SDS011;35483;50.828;3.228;2023-07-30T03:32:17;10.15;;;3.40;;
49578;SDS011;35483;50.828;3.228;2023-07-30T03:34:43;8.80;;;3.13;;
49578;SDS011;35483;50.828;3.228;2023-07-30T03:37:10;8.20;;;3.13;;
49578;SDS011;35483;50.828;3.228;2023-07-30T03:39:36;9.98;;;3.47;;
49578;SDS011;35483;50.828;3.228;2023-07-30T03:42:01;8.20;;;2.88;;
49578;SDS011;35483;50.828;3.228;2023-07-30T03:44:27;12.07;;;3.35;;
49578;SDS011;35483;50.828;3.228;2023-07-30T03:46:53;11.77;;;2.85;;
49578;SDS011;35483;50.828;3.228;2023-07-30T03:49:19;10.73;;;3.03;;
49578;SDS011;35483;50.828;3.228;2023-07-30T03:51:44;10.75;;;3.33;;
49578;SDS011;35483;50.828;3.228;2023-07-30T03:54:10;10.10;;;3.10;;
49578;SDS011;35483;50.828;3.228;2023-07-30T03:56:36;11.27;;;3.22;;
49578;SDS011;35483;50.828;3.228;2023-07-30T03:59:02;10.15;;;3.70;;
49578;SDS011;35483;50.828;3.228;2023-07-30T04:01:28;13.75;;;3.63;;
49578;SDS011;35483;50.828;3.228;2023-07-30T04:03:55;10.93;;;3.60;;
49578;SDS011;35483;50.828;3.228;2023-07-30T04:06:21;11.32;;;2.92;;
49578;SDS011;35483;50.828;3.228;2023-07-30T04:08:47;9.27;;;3.28;;
49578;SDS011;35483;50.828;3.228;2023-07-30T04:11:12;13.35;;;3.80;;
49578;SDS011;35483;50.828;3.228;2023-07-30T04:13:38;12.82;;;3.50;;
49578;SDS011;35483;50.828;3.228;2023-07-30T04:16:06;8.75;;;2.88;;
49578;SDS011;35483;50.828;3.228;2023-07-30T04:18:31;12.35;;;3.42;;
49578;SDS011;35483;50.828;3.228;2023-07-30T04:20:57;11.02;;;3.08;;
49578;SDS011;35483;50.828;3.228;2023-07-30T04:23:23;17.13;;;3.17;;
49578;SDS011;35483;50.828;3.228;2023-07-30T04:25:49;8.73;;;3.47;;
49578;SDS011;35483;50.828;3.228;2023-07-30T04:28:15;13.60;;;4.13;;
49578;SDS011;35483;50.828;3.228;2023-07-30T04:30:41;7.63;;;3.38;;
49578;SDS011;35483;50.828;3.228;2023-07-30T04:33:07;7.50;;;3.05;;
49578;SDS011;35483;50.828;3.228;2023-07-30T04:35:33;11.73;;;3.58;;
49578;SDS011;35483;50.828;3.228;2023-07-30T04:37:58;12.57;;;3.97;;
49578;SDS011;35483;50.828;3.228;2023-07-30T04:40:24;9.65;;;3.55;;
49578;SDS011;35483;50.828;3.228;2023-07-30T04:42:50;11.18;;;3.10;;
49578;SDS011;35483;50.828;3.228;2023-07-30T04:45:16;12.60;;;3.67;;
49578;SDS011;35483;50.828;3.228;2023-07-30T04:47:42;11.52;;;3.10;;
49578;SDS011;35483;50.828;3.228;2023-07-30T04:50:07;13.95;;;3.42;;
49578;SDS011;35483;50.828;3.228;2023-07-30T04:52:33;14.10;;;3.55;;
49578;SDS011;35483;50.828;3.228;2023-07-30T04:54:59;10.40;;;2.97;;
49578;SDS011;35483;50.828;3.228;2023-07-30T04:57:25;13.23;;;3.58;;
49578;SDS011;35483;50.828;3.228;2023-07-30T04:59:51;11.20;;;3.15;;
49578;SDS011;35483;50.828;3.228;2023-07-30T05:02:16;12.68;;;3.60;;
49578;SDS011;35483;50.828;3.228;2023-07-30T05:04:42;14.43;;;3.95;;
49578;SDS011;35483;50.828;3.228;2023-07-30T05:07:08;10.13;;;3.10;;
49578;SDS011;35483;50.828;3.228;2023-07-30T05:09:34;11.98;;;3.42;;
49578;SDS011;35483;50.828;3.228;2023-07-30T05:11:59;11.32;;;3.45;;
49578;SDS011;35483;50.828;3.228;2023-07-30T05:14:25;13.60;;;4.07;;
49578;SDS011;35483;50.828;3.228;2023-07-30T05:16:51;18.38;;;3.65;;
49578;SDS011;35483;50.828;3.228;2023-07-30T05:19:16;11.27;;;3.00;;
49578;SDS011;35483;50.828;3.228;2023-07-30T05:21:42;9.68;;;3.40;;
49578;SDS011;35483;50.828;3.228;2023-07-30T05:24:08;8.85;;;3.35;;
49578;SDS011;35483;50.828;3.228;2023-07-30T05:26:33;11.52;;;3.60;;
49578;SDS011;35483;50.828;3.228;2023-07-30T05:29:00;11.48;;;3.35;;
49578;SDS011;35483;50.828;3.228;2023-07-30T05:31:25;11.63;;;3.28;;
49578;SDS011;35483;50.828;3.228;2023-07-30T05:33:51;17.02;;;4.20;;
49578;SDS011;35483;50.828;3.228;2023-07-30T05:36:17;12.85;;;3.85;;
49578;SDS011;35483;50.828;3.228;2023-07-30T05:38:43;9.30;;;3.20;;
49578;SDS011;35483;50.828;3.228;2023-07-30T05:41:08;9.13;;;3.10;;
49578;SDS011;35483;50.828;3.228;2023-07-30T05:43:34;17.23;;;3.53;;
49578;SDS011;35483;50.828;3.228;2023-07-30T05:46:00;11.60;;;3.63;;
49578;SDS011;35483;50.828;3.228;2023-07-30T05:48:26;10.70;;;3.13;;
49578;SDS011;35483;50.828;3.228;2023-07-30T05:50:51;13.95;;;3.33;;
49578;SDS011;35483;50.828;3.228;2023-07-30T05:53:17;12.70;;;3.80;;
49578;SDS011;35483;50.828;3.228;2023-07-30T05:55:43;10.13;;;3.45;;
49578;SDS011;35483;50.828;3.228;2023-07-30T05:58:08;7.55;;;2.95;;
49578;SDS011;35483;50.828;3.228;2023-07-30T06:00:34;16.55;;;3.72;;
49578;SDS011;35483;50.828;3.228;2023-07-30T06:03:00;8.88;;;2.80;;
49578;SDS011;35483;50.828;3.228;2023-07-30T06:05:26;12.35;;;2.95;;
49578;SDS011;35483;50.828;3.228;2023-07-30T06:07:52;8.68;;;2.50;;
49578;SDS011;35483;50.828;3.228;2023-07-30T06:10:18;8.02;;;2.88;;
49578;SDS011;35483;50.828;3.228;2023-07-30T06:12:43;11.00;;;3.25;;
49578;SDS011;35483;50.828;3.228;2023-07-30T06:15:09;10.88;;;3.03;;
49578;SDS011;35483;50.828;3.228;2023-07-30T06:17:35;14.82;;;3.10;;
49578;SDS011;35483;50.828;3.228;2023-07-30T06:20:01;12.65;;;2.90;;
49578;SDS011;35483;50.828;3.228;2023-07-30T06:22:27;9.70;;;2.50;;
49578;SDS011;35483;50.828;3.228;2023-07-30T06:24:53;11.18;;;3.45;;
49578;SDS011;35483;50.828;3.228;2023-07-30T06:27:18;13.38;;;3.28;;
49578;SDS011;35483;50.828;3.228;2023-07-30T06:29:44;16.40;;;4.07;;
49578;SDS011;35483;50.828;3.228;2023-07-30T06:32:10;12.18;;;2.97;;
49578;SDS011;35483;50.828;3.228;2023-07-30T06:34:36;8.75;;;3.17;;
49578;SDS011;35483;50.828;3.228;2023-07-30T06:37:01;11.02;;;2.67;;
49578;SDS011;35483;50.828;3.228;2023-07-30T06:39:27;13.32;;;3.30;;
49578;SDS011;35483;50.828;3.228;2023-07-30T06:41:53;7.90;;;2.80;;
49578;SDS011;35483;50.828;3.228;2023-07-30T06:44:18;12.55;;;3.33;;
49578;SDS011;35483;50.828;3.228;2023-07-30T06:46:44;10.13;;;3.65;;
49578;SDS011;35483;50.828;3.228;2023-07-30T06:49:10;9.68;;;2.70;;
49578;SDS011;35483;50.828;3.228;2023-07-30T06:51:36;9.68;;;2.65;;
49578;SDS011;35483;50.828;3.228;2023-07-30T06:54:01;11.43;;;2.88;;
49578;SDS011;35483;50.828;3.228;2023-07-30T06:56:27;8.80;;;3.58;;
49578;SDS011;35483;50.828;3.228;2023-07-30T06:58:53;9.60;;;3.30;;
49578;SDS011;35483;50.828;3.228;2023-07-30T07:01:19;12.38;;;2.60;;
49578;SDS011;35483;50.828;3.228;2023-07-30T07:03:44;7.57;;;2.42;;
49578;SDS011;35483;50.828;3.228;2023-07-30T07:06:10;7.88;;;2.58;;
49578;SDS011;35483;50.828;3.228;2023-07-30T07:08:36;9.55;;;2.80;;
49578;SDS011;35483;50.828;3.228;2023-07-30T07:11:01;14.90;;;3.78;;
49578;SDS011;35483;50.828;3.228;2023-07-30T07:13:27;9.65;;;2.97;;
49578;SDS011;35483;50.828;3.228;2023-07-30T07:15:53;8.07;;;2.20;;
49578;SDS011;35483;50.828;3.228;2023-07-30T07:18:19;10.10;;;3.08;;
49578;SDS011;35483;50.828;3.228;2023-07-30T07:20:45;8.93;;;3.22;;
49578;SDS011;35483;50.828;3.228;2023-07-30T07:23:10;10.38;;;2.70;;
49578;SDS011;35483;50.828;3.228;2023-07-30T07:25:36;11.85;;;3.28;;
49578;SDS011;35483;50.828;3.228;2023-07-30T07:28:03;8.40;;;2.90;;
49578;SDS011;35483;50.828;3.228;2023-07-30T07:30:28;10.98;;;2.85;;
49578;SDS011;35483;50.828;3.228;2023-07-30T07:32:54;8.00;;;2.92;;
49578;SDS011;35483;50.828;3.228;2023-07-30T07:35:20;14.98;;;3.42;;
49578;SDS011;35483;50.828;3.228;2023-07-30T07:37:47;12.40;;;3.83;;
49578;SDS011;35483;50.828;3.228;2023-07-30T07:40:12;12.15;;;3.67;;
49578;SDS011;35483;50.828;3.228;2023-07-30T07:42:40;11.02;;;2.80;;
49578;SDS011;35483;50.828;3.228;2023-07-30T07:45:06;7.97;;;3.25;;
49578;SDS011;35483;50.828;3.228;2023-07-30T07:47:32;9.88;;;2.22;;
49578;SDS011;35483;50.828;3.228;2023-07-30T07:49:58;5.25;;;2.50;;
49578;SDS011;35483;50.828;3.228;2023-07-30T07:52:24;5.55;;;2.00;;
49578;SDS011;35483;50.828;3.228;2023-07-30T07:54:49;5.32;;;1.88;;
49578;SDS011;35483;50.828;3.228;2023-07-30T07:57:15;5.35;;;2.20;;
49578;SDS011;35483;50.828;3.228;2023-07-30T07:59:41;6.88;;;2.20;;
49578;SDS011;35483;50.828;3.228;2023-07-30T08:02:10;6.35;;;2.60;;
49578;SDS011;35483;50.828;3.228;2023-07-30T08:04:37;6.78;;;2.67;;
49578;SDS011;35483;50.828;3.228;2023-07-30T08:07:05;4.88;;;2.10;;
49578;SDS011;35483;50.828;3.228;2023-07-30T08:09:31;7.65;;;2.17;;
49578;SDS011;35483;50.828;3.228;2023-07-30T08:11:57;6.63;;;1.70;;
49578;SDS011;35483;50.828;3.228;2023-07-30T08:14:23;5.13;;;2.13;;
49578;SDS011;35483;50.828;3.228;2023-07-30T08:16:50;7.88;;;2.17;;
49578;SDS011;35483;50.828;3.228;2023-07-30T08:19:16;2.75;;;2.05;;
49578;SDS011;35483;50.828;3.228;2023-07-30T08:21:41;6.68;;;2.22;;
49578;SDS011;35483;50.828;3.228;2023-07-30T08:24:09;4.43;;;2.08;;
49578;SDS011;35483;50.828;3.228;2023-07-30T08:26:35;5.38;;;2.22;;
49578;SDS011;35483;50.828;3.228;2023-07-30T08:29:00;5.43;;;2.20;;
49578;SDS011;35483;50.828;3.228;2023-07-30T08:31:26;7.43;;;2.05;;
49578;SDS011;35483;50.828;3.228;2023-07-30T08:33:52;7.93;;;1.80;;
49578;SDS011;35483;50.828;3.228;2023-07-30T08:36:18;7.93;;;2.20;;
49578;SDS011;35483;50.828;3.228;2023-07-30T08:38:44;7.20;;;2.25;;
49578;SDS011;35483;50.828;3.228;2023-07-30T08:41:10;6.32;;;2.15;;
49578;SDS011;35483;50.828;3.228;2023-07-30T08:43:35;5.95;;;1.50;;
49578;SDS011;35483;50.828;3.228;2023-07-30T08:46:01;5.75;;;1.88;;
49578;SDS011;35483;50.828;3.228;2023-07-30T08:48:27;7.60;;;1.58;;
49578;SDS011;35483;50.828;3.228;2023-07-30T08:50:56;6.10;;;2.08;;
49578;SDS011;35483;50.828;3.228;2023-07-30T08:53:24;8.95;;;2.45;;
49578;SDS011;35483;50.828;3.228;2023-07-30T08:55:50;5.25;;;1.75;;
49578;SDS011;35483;50.828;3.228;2023-07-30T08:58:16;6.72;;;2.38;;
49578;SDS011;35483;50.828;3.228;2023-07-30T09:00:43;7.85;;;2.42;;
49578;SDS011;35483;50.828;3.228;2023-07-30T09:03:10;7.80;;;2.15;;
49578;SDS011;35483;50.828;3.228;2023-07-30T09:05:42;5.80;;;2.15;;
49578;SDS011;35483;50.828;3.228;2023-07-30T09:08:08;6.80;;;2.40;;
49578;SDS011;35483;50.828;3.228;2023-07-30T09:10:34;5.10;;;2.20;;
49578;SDS011;35483;50.828;3.228;2023-07-30T09:13:01;6.32;;;1.73;;
49578;SDS011;35483;50.828;3.228;2023-07-30T09:15:34;6.78;;;2.03;;
49578;SDS011;35483;50.828;3.228;2023-07-30T09:18:04;4.57;;;1.15;;
49578;SDS011;35483;50.828;3.228;2023-07-30T09:20:41;7.20;;;1.38;;
49578;SDS011;35483;50.828;3.228;2023-07-30T09:23:07;5.13;;;1.63;;
49578;SDS011;35483;50.828;3.228;2023-07-30T09:25:35;5.80;;;2.30;;
49578;SDS011;35483;50.828;3.228;2023-07-30T09:28:01;4.32;;;1.23;;
49578;SDS011;35483;50.828;3.228;2023-07-30T09:30:27;3.00;;;1.20;;
49578;SDS011;35483;50.828;3.228;2023-07-30T09:32:53;3.17;;;1.60;;
49578;SDS011;35483;50.828;3.228;2023-07-30T09:35:21;5.43;;;1.42;;
49578;SDS011;35483;50.828;3.228;2023-07-30T09:37:50;2.83;;;1.25;;
49578;SDS011;35483;50.828;3.228;2023-07-30T09:40:30;6.00;;;1.63;;
49578;SDS011;35483;50.828;3.228;2023-07-30T09:42:58;3.07;;;1.27;;
49578;SDS011;35483;50.828;3.228;2023-07-30T09:45:24;3.33;;;1.30;;
49578;SDS011;35483;50.828;3.228;2023-07-30T09:47:51;5.85;;;1.40;;
49578;SDS011;35483;50.828;3.228;2023-07-30T09:50:18;4.55;;;1.83;;
49578;SDS011;35483;50.828;3.228;2023-07-30T09:52:44;4.97;;;2.15;;
49578;SDS011;35483;50.828;3.228;2023-07-30T09:55:11;8.43;;;1.73;;
49578;SDS011;35483;50.828;3.228;2023-07-30T09:57:37;6.90;;;2.00;;
49578;SDS011;35483;50.828;3.228;2023-07-30T10:00:04;4.97;;;1.92;;
49578;SDS011;35483;50.828;3.228;2023-07-30T10:02:31;4.55;;;1.40;;
49578;SDS011;35483;50.828;3.228;2023-07-30T10:04:59;4.50;;;1.23;;
49578;SDS011;35483;50.828;3.228;2023-07-30T10:07:26;5.57;;;2.17;;
49578;SDS011;35483;50.828;3.228;2023-07-30T10:09:55;4.68;;;1.45;;
49578;SDS011;35483;50.828;3.228;2023-07-30T10:12:27;8.32;;;1.60;;
49578;SDS011;35483;50.828;3.228;2023-07-30T10:14:56;3.67;;;1.45;;
49578;SDS011;35483;50.828;3.228;2023-07-30T10:17:22;3.20;;;1.90;;
49578;SDS011;35483;50.828;3.228;2023-07-30T10:19:48;2.88;;;1.27;;
49578;SDS011;35483;50.828;3.228;2023-07-30T10:27:26;6.20;;;1.70;;
49578;SDS011;35483;50.828;3.228;2023-07-30T10:30:13;6.00;;;1.63;;
49578;SDS011;35483;50.828;3.228;2023-07-30T10:32:40;3.30;;;1.20;;
49578;SDS011;35483;50.828;3.228;2023-07-30T10:35:43;5.45;;;1.45;;
49578;SDS011;35483;50.828;3.228;2023-07-30T10:41:01;2.30;;;1.20;;
49578;SDS011;35483;50.828;3.228;2023-07-30T10:43:37;3.95;;;1.98;;
49578;SDS011;35483;50.828;3.228;2023-07-30T10:46:15;2.58;;;1.25;;
49578;SDS011;35483;50.828;3.228;2023-07-30T10:48:42;7.25;;;1.80;;
49578;SDS011;35483;50.828;3.228;2023-07-30T10:51:10;4.85;;;1.67;;
49578;SDS011;35483;50.828;3.228;2023-07-30T10:53:37;3.83;;;1.52;;
49578;SDS011;35483;50.828;3.228;2023-07-30T10:56:06;3.42;;;1.33;;
49578;SDS011;35483;50.828;3.228;2023-07-30T10:58:34;3.63;;;1.10;;
49578;SDS011;35483;50.828;3.228;2023-07-30T11:01:04;5.07;;;1.30;;
49578;SDS011;35483;50.828;3.228;2023-07-30T11:03:31;3.10;;;1.30;;
49578;SDS011;35483;50.828;3.228;2023-07-30T11:05:57;3.65;;;1.17;;
49578;SDS011;35483;50.828;3.228;2023-07-30T11:08:33;2.38;;;1.10;;
49578;SDS011;35483;50.828;3.228;2023-07-30T11:11:07;3.42;;;1.30;;
49578;SDS011;35483;50.828;3.228;2023-07-30T11:13:37;2.72;;;1.35;;
49578;SDS011;35483;50.828;3.228;2023-07-30T11:16:05;3.25;;;1.45;;
49578;SDS011;35483;50.828;3.228;2023-07-30T11:18:34;3.28;;;1.17;;
49578;SDS011;35483;50.828;3.228;2023-07-30T11:21:07;3.53;;;1.30;;
49578;SDS011;35483;50.828;3.228;2023-07-30T11:23:35;1.83;;;0.82;;
49578;SDS011;35483;50.828;3.228;2023-07-30T11:26:02;3.50;;;1.05;;
49578;SDS011;35483;50.828;3.228;2023-07-30T11:28:33;1.65;;;0.65;;
49578;SDS011;35483;50.828;3.228;2023-07-30T11:31:01;3.58;;;1.40;;
49578;SDS011;35483;50.828;3.228;2023-07-30T11:33:30;2.17;;;1.00;;
49578;SDS011;35483;50.828;3.228;2023-07-30T11:35:56;1.90;;;0.95;;
49578;SDS011;35483;50.828;3.228;2023-07-30T11:38:25;2.83;;;1.40;;
49578;SDS011;35483;50.828;3.228;2023-07-30T11:40:53;2.92;;;1.10;;
49578;SDS011;35483;50.828;3.228;2023-07-30T11:43:21;5.43;;;1.23;;
49578;SDS011;35483;50.828;3.228;2023-07-30T11:45:48;5.85;;;1.90;;
49578;SDS011;35483;50.828;3.228;2023-07-30T11:48:14;6.10;;;1.42;;
49578;SDS011;35483;50.828;3.228;2023-07-30T11:50:50;5.90;;;1.42;;
49578;SDS011;35483;50.828;3.228;2023-07-30T11:53:17;2.65;;;1.20;;
49578;SDS011;35483;50.828;3.228;2023-07-30T11:55:44;4.10;;;1.50;;
49578;SDS011;35483;50.828;3.228;2023-07-30T11:58:10;5.03;;;1.65;;
49578;SDS011;35483;50.828;3.228;2023-07-30T12:00:38;2.88;;;1.50;;
49578;SDS011;35483;50.828;3.228;2023-07-30T12:03:05;3.03;;;1.42;;
49578;SDS011;35483;50.828;3.228;2023-07-30T12:05:34;3.40;;;1.33;;
49578;SDS011;35483;50.828;3.228;2023-07-30T12:08:02;5.03;;;1.60;;
49578;SDS011;35483;50.828;3.228;2023-07-30T12:10:45;3.72;;;1.55;;
49578;SDS011;35483;50.828;3.228;2023-07-30T12:13:18;2.30;;;1.33;;
49578;SDS011;35483;50.828;3.228;2023-07-30T12:15:51;2.55;;;1.52;;
49578;SDS011;35483;50.828;3.228;2023-07-30T12:18:18;4.97;;;1.83;;
49578;SDS011;35483;50.828;3.228;2023-07-30T12:20:44;4.90;;;1.88;;
49578;SDS011;35483;50.828;3.228;2023-07-30T12:23:11;3.58;;;1.70;;
49578;SDS011;35483;50.828;3.228;2023-07-30T12:25:37;6.78;;;1.95;;
49578;SDS011;35483;50.828;3.228;2023-07-30T12:28:03;2.75;;;1.55;;
49578;SDS011;35483;50.828;3.228;2023-07-30T12:30:29;5.07;;;1.83;;
49578;SDS011;35483;50.828;3.228;2023-07-30T12:32:55;6.45;;;2.08;;
49578;SDS011;35483;50.828;3.228;2023-07-30T12:35:21;6.38;;;2.20;;
49578;SDS011;35483;50.828;3.228;2023-07-30T12:37:47;3.13;;;1.80;;
49578;SDS011;35483;50.828;3.228;2023-07-30T12:40:12;6.20;;;2.20;;
49578;SDS011;35483;50.828;3.228;2023-07-30T12:42:38;6.30;;;1.85;;
49578;SDS011;35483;50.828;3.228;2023-07-30T12:45:05;5.57;;;1.63;;
49578;SDS011;35483;50.828;3.228;2023-07-30T12:47:31;8.27;;;2.30;;
49578;SDS011;35483;50.828;3.228;2023-07-30T12:50:00;3.60;;;1.98;;
49578;SDS011;35483;50.828;3.228;2023-07-30T12:52:26;6.25;;;2.50;;
49578;SDS011;35483;50.828;3.228;2023-07-30T12:54:52;3.88;;;1.90;;
49578;SDS011;35483;50.828;3.228;2023-07-30T12:57:17;7.53;;;2.38;;
49578;SDS011;35483;50.828;3.228;2023-07-30T12:59:43;3.65;;;2.42;;
49578;SDS011;35483;50.828;3.228;2023-07-30T13:02:10;8.43;;;2.33;;
49578;SDS011;35483;50.828;3.228;2023-07-30T13:04:35;5.20;;;2.65;;
49578;SDS011;35483;50.828;3.228;2023-07-30T13:07:01;7.10;;;2.53;;
49578;SDS011;35483;50.828;3.228;2023-07-30T13:09:27;5.78;;;2.47;;
49578;SDS011;35483;50.828;3.228;2023-07-30T13:11:53;6.65;;;2.42;;
49578;SDS011;35483;50.828;3.228;2023-07-30T13:14:19;7.53;;;2.70;;
49578;SDS011;35483;50.828;3.228;2023-07-30T13:16:45;6.05;;;2.17;;
49578;SDS011;35483;50.828;3.228;2023-07-30T13:19:11;5.75;;;2.40;;
49578;SDS011;35483;50.828;3.228;2023-07-30T13:21:37;4.72;;;2.13;;
49578;SDS011;35483;50.828;3.228;2023-07-30T13:24:03;4.43;;;1.90;;
49578;SDS011;35483;50.828;3.228;2023-07-30T13:26:29;4.78;;;2.38;;
49578;SDS011;35483;50.828;3.228;2023-07-30T13:28:55;5.22;;;2.53;;
49578;SDS011;35483;50.828;3.228;2023-07-30T13:31:22;6.30;;;2.05;;
49578;SDS011;35483;50.828;3.228;2023-07-30T13:33:47;6.60;;;2.28;;
49578;SDS011;35483;50.828;3.228;2023-07-30T13:36:13;5.85;;;2.75;;
49578;SDS011;35483;50.828;3.228;2023-07-30T13:38:39;6.00;;;2.20;;
49578;SDS011;35483;50.828;3.228;2023-07-30T13:41:05;4.18;;;2.13;;
49578;SDS011;35483;50.828;3.228;2023-07-30T13:43:32;5.50;;;2.03;;
49578;SDS011;35483;50.828;3.228;2023-07-30T13:45:59;5.15;;;2.28;;
49578;SDS011;35483;50.828;3.228;2023-07-30T13:48:26;6.75;;;2.35;;
49578;SDS011;35483;50.828;3.228;2023-07-30T13:50:52;3.88;;;1.92;;
49578;SDS011;35483;50.828;3.228;2023-07-30T13:53:17;5.60;;;2.33;;
49578;SDS011;35483;50.828;3.228;2023-07-30T13:55:43;4.55;;;2.25;;
49578;SDS011;35483;50.828;3.228;2023-07-30T13:58:09;5.95;;;2.63;;
49578;SDS011;35483;50.828;3.228;2023-07-30T14:00:35;4.07;;;2.33;;
49578;SDS011;35483;50.828;3.228;2023-07-30T14:03:01;4.78;;;2.38;;
49578;SDS011;35483;50.828;3.228;2023-07-30T14:05:26;6.22;;;2.45;;
49578;SDS011;35483;50.828;3.228;2023-07-30T14:07:53;5.72;;;3.15;;
49578;SDS011;35483;50.828;3.228;2023-07-30T14:10:22;4.32;;;2.55;;
49578;SDS011;35483;50.828;3.228;2023-07-30T14:12:48;6.53;;;2.45;;
49578;SDS011;35483;50.828;3.228;2023-07-30T14:15:14;4.90;;;2.58;;
49578;SDS011;35483;50.828;3.228;2023-07-30T14:17:40;6.85;;;2.72;;
49578;SDS011;35483;50.828;3.228;2023-07-30T14:20:06;7.75;;;2.90;;
49578;SDS011;35483;50.828;3.228;2023-07-30T14:22:33;7.85;;;3.17;;
49578;SDS011;35483;50.828;3.228;2023-07-30T14:24:59;6.70;;;2.53;;
49578;SDS011;35483;50.828;3.228;2023-07-30T14:27:25;5.47;;;2.30;;
49578;SDS011;35483;50.828;3.228;2023-07-30T14:29:51;6.43;;;2.30;;
49578;SDS011;35483;50.828;3.228;2023-07-30T14:32:17;5.10;;;2.50;;
49578;SDS011;35483;50.828;3.228;2023-07-30T14:34:46;5.57;;;2.55;;
49578;SDS011;35483;50.828;3.228;2023-07-30T14:37:12;5.20;;;2.28;;
49578;SDS011;35483;50.828;3.228;2023-07-30T14:39:37;3.95;;;2.20;;
49578;SDS011;35483;50.828;3.228;2023-07-30T14:42:04;5.05;;;1.83;;
49578;SDS011;35483;50.828;3.228;2023-07-30T14:44:30;7.35;;;2.35;;
49578;SDS011;35483;50.828;3.228;2023-07-30T14:46:55;5.85;;;1.60;;
49578;SDS011;35483;50.828;3.228;2023-07-30T14:49:23;3.65;;;1.48;;